sensor_id;sensor_type;location;lat;lon;timestamp;P1;durP1;ratioP1;P2;durP2;ratioP2
1414;SDS011;702;49.466;11.086;2023-04-12T00:02:06;5.27;;;2.73;;
1414;SDS011;702;49.466;11.086;2023-04-12T00:04:33;6.03;;;2.63;;
1414;SDS011;702;49.466;11.086;2023-04-12T00:07:01;6.77;;;3.20;;
1414;SDS011;702;49.466;11.086;2023-04-12T00:09:30;6.70;;;2.50;;
1414;SDS011;702;49.466;11.086;2023-04-12T00:12:00;5.63;;;3.43;;
1414;SDS011;702;49.466;11.086;2023-04-12T00:14:28;4.00;;;2.83;;
1414;SDS011;702;49.466;11.086;2023-04-12T00:16:56;7.60;;;2.70;;
1414;SDS011;702;49.466;11.086;2023-04-12T00:19:24;7.53;;;2.63;;
1414;SDS011;702;49.466;11.086;2023-04-12T00:21:51;3.60;;;2.27;;
1414;SDS011;702;49.466;11.086;2023-04-12T00:24:19;6.77;;;2.80;;
1414;SDS011;702;49.466;11.086;2023-04-12T00:26:46;5.70;;;2.80;;
1414;SDS011;702;49.466;11.086;2023-04-12T00:29:14;6.10;;;2.50;;
1414;SDS011;702;49.466;11.086;2023-04-12T00:31:41;7.80;;;2.67;;
1414;SDS011;702;49.466;11.086;2023-04-12T00:34:09;7.83;;;3.10;;
1414;SDS011;702;49.466;11.086;2023-04-12T00:36:37;4.20;;;2.30;;
1414;SDS011;702;49.466;11.086;2023-04-12T00:39:04;3.27;;;2.20;;
1414;SDS011;702;49.466;11.086;2023-04-12T00:41:31;3.60;;;2.60;;
1414;SDS011;702;49.466;11.086;2023-04-12T00:44:02;4.60;;;2.93;;
1414;SDS011;702;49.466;11.086;2023-04-12T00:46:29;3.60;;;2.77;;
1414;SDS011;702;49.466;11.086;2023-04-12T00:48:58;5.63;;;3.07;;
1414;SDS011;702;49.466;11.086;2023-04-12T00:51:26;5.20;;;2.63;;
1414;SDS011;702;49.466;11.086;2023-04-12T00:53:59;3.83;;;2.90;;
1414;SDS011;702;49.466;11.086;2023-04-12T00:56:27;6.73;;;2.83;;
1414;SDS011;702;49.466;11.086;2023-04-12T00:58:56;6.37;;;2.80;;
1414;SDS011;702;49.466;11.086;2023-04-12T01:01:24;3.90;;;3.20;;
1414;SDS011;702;49.466;11.086;2023-04-12T01:03:52;8.93;;;3.37;;
1414;SDS011;702;49.466;11.086;2023-04-12T01:06:28;4.20;;;2.90;;
1414;SDS011;702;49.466;11.086;2023-04-12T01:09:09;6.33;;;3.17;;
1414;SDS011;702;49.466;11.086;2023-04-12T01:11:47;5.87;;;2.50;;
1414;SDS011;702;49.466;11.086;2023-04-12T01:14:28;7.13;;;3.73;;
1414;SDS011;702;49.466;11.086;2023-04-12T01:17:10;6.90;;;2.90;;
1414;SDS011;702;49.466;11.086;2023-04-12T01:19:51;4.90;;;2.80;;
1414;SDS011;702;49.466;11.086;2023-04-12T01:22:37;6.30;;;2.93;;
1414;SDS011;702;49.466;11.086;2023-04-12T01:25:52;4.73;;;2.87;;
1414;SDS011;702;49.466;11.086;2023-04-12T01:28:53;4.20;;;2.70;;
1414;SDS011;702;49.466;11.086;2023-04-12T01:31:22;5.23;;;2.50;;
1414;SDS011;702;49.466;11.086;2023-04-12T01:33:50;6.27;;;3.17;;
1414;SDS011;702;49.466;11.086;2023-04-12T01:36:19;3.77;;;3.27;;
1414;SDS011;702;49.466;11.086;2023-04-12T01:38:48;2.80;;;2.43;;
1414;SDS011;702;49.466;11.086;2023-04-12T01:41:15;5.70;;;2.70;;
1414;SDS011;702;49.466;11.086;2023-04-12T01:43:44;4.53;;;2.90;;
1414;SDS011;702;49.466;11.086;2023-04-12T01:46:15;3.20;;;2.80;;
1414;SDS011;702;49.466;11.086;2023-04-12T01:48:47;3.83;;;2.83;;
1414;SDS011;702;49.466;11.086;2023-04-12T01:51:18;6.63;;;3.30;;
1414;SDS011;702;49.466;11.086;2023-04-12T01:53:56;4.83;;;3.10;;
1414;SDS011;702;49.466;11.086;2023-04-12T01:56:28;8.87;;;2.80;;
1414;SDS011;702;49.466;11.086;2023-04-12T01:58:57;5.03;;;2.70;;
1414;SDS011;702;49.466;11.086;2023-04-12T02:01:27;4.40;;;2.73;;
1414;SDS011;702;49.466;11.086;2023-04-12T02:03:55;4.20;;;2.70;;
1414;SDS011;702;49.466;11.086;2023-04-12T02:06:24;7.23;;;4.10;;
1414;SDS011;702;49.466;11.086;2023-04-12T02:08:55;2.97;;;2.50;;
1414;SDS011;702;49.466;11.086;2023-04-12T02:11:24;2.83;;;2.57;;
1414;SDS011;702;49.466;11.086;2023-04-12T02:13:51;6.80;;;3.40;;
1414;SDS011;702;49.466;11.086;2023-04-12T02:16:18;3.60;;;2.97;;
1414;SDS011;702;49.466;11.086;2023-04-12T02:18:48;3.77;;;3.20;;
1414;SDS011;702;49.466;11.086;2023-04-12T02:21:16;4.77;;;3.00;;
1414;SDS011;702;49.466;11.086;2023-04-12T02:23:43;6.83;;;3.30;;
1414;SDS011;702;49.466;11.086;2023-04-12T02:26:11;5.80;;;2.57;;
1414;SDS011;702;49.466;11.086;2023-04-12T02:28:38;3.27;;;2.20;;
1414;SDS011;702;49.466;11.086;2023-04-12T02:31:05;4.10;;;2.63;;
1414;SDS011;702;49.466;11.086;2023-04-12T02:33:33;9.30;;;2.80;;
1414;SDS011;702;49.466;11.086;2023-04-12T02:36:02;10.40;;;2.70;;
1414;SDS011;702;49.466;11.086;2023-04-12T02:38:29;8.70;;;3.13;;
1414;SDS011;702;49.466;11.086;2023-04-12T02:40:56;3.23;;;2.40;;
1414;SDS011;702;49.466;11.086;2023-04-12T02:43:24;2.20;;;2.00;;
1414;SDS011;702;49.466;11.086;2023-04-12T02:45:51;6.40;;;2.87;;
1414;SDS011;702;49.466;11.086;2023-04-12T02:48:18;8.17;;;2.63;;
1414;SDS011;702;49.466;11.086;2023-04-12T02:50:45;5.00;;;2.53;;
1414;SDS011;702;49.466;11.086;2023-04-12T02:53:15;5.03;;;2.70;;
1414;SDS011;702;49.466;11.086;2023-04-12T02:55:42;3.70;;;2.70;;
1414;SDS011;702;49.466;11.086;2023-04-12T02:58:10;7.47;;;2.60;;
1414;SDS011;702;49.466;11.086;2023-04-12T03:00:37;3.67;;;2.53;;
1414;SDS011;702;49.466;11.086;2023-04-12T03:03:06;3.63;;;2.60;;
1414;SDS011;702;49.466;11.086;2023-04-12T03:05:33;6.10;;;2.93;;
1414;SDS011;702;49.466;11.086;2023-04-12T03:08:02;3.97;;;2.60;;
1414;SDS011;702;49.466;11.086;2023-04-12T03:10:30;4.80;;;2.70;;
1414;SDS011;702;49.466;11.086;2023-04-12T03:12:57;5.43;;;2.73;;
1414;SDS011;702;49.466;11.086;2023-04-12T03:15:25;4.70;;;2.30;;
1414;SDS011;702;49.466;11.086;2023-04-12T03:17:53;2.90;;;2.33;;
1414;SDS011;702;49.466;11.086;2023-04-12T03:20:20;6.97;;;2.87;;
1414;SDS011;702;49.466;11.086;2023-04-12T03:22:49;3.53;;;2.27;;
1414;SDS011;702;49.466;11.086;2023-04-12T03:25:16;4.93;;;2.67;;
1414;SDS011;702;49.466;11.086;2023-04-12T03:27:45;5.60;;;2.90;;
1414;SDS011;702;49.466;11.086;2023-04-12T03:30:12;7.00;;;3.07;;
1414;SDS011;702;49.466;11.086;2023-04-12T03:32:39;3.80;;;2.50;;
1414;SDS011;702;49.466;11.086;2023-04-12T03:35:07;4.53;;;2.50;;
1414;SDS011;702;49.466;11.086;2023-04-12T03:37:39;4.57;;;2.40;;
1414;SDS011;702;49.466;11.086;2023-04-12T03:40:08;3.53;;;2.00;;
1414;SDS011;702;49.466;11.086;2023-04-12T03:42:35;6.20;;;2.40;;
1414;SDS011;702;49.466;11.086;2023-04-12T03:45:05;6.33;;;2.83;;
1414;SDS011;702;49.466;11.086;2023-04-12T03:47:33;4.80;;;2.30;;
1414;SDS011;702;49.466;11.086;2023-04-12T03:50:01;3.50;;;2.23;;
1414;SDS011;702;49.466;11.086;2023-04-12T03:52:32;3.10;;;1.90;;
1414;SDS011;702;49.466;11.086;2023-04-12T03:54:59;6.00;;;2.57;;
1414;SDS011;702;49.466;11.086;2023-04-12T03:57:27;3.10;;;2.73;;
1414;SDS011;702;49.466;11.086;2023-04-12T03:59:54;4.17;;;2.50;;
1414;SDS011;702;49.466;11.086;2023-04-12T04:02:23;3.53;;;2.50;;
1414;SDS011;702;49.466;11.086;2023-04-12T04:04:52;8.00;;;2.60;;
1414;SDS011;702;49.466;11.086;2023-04-12T04:07:21;8.30;;;2.83;;
1414;SDS011;702;49.466;11.086;2023-04-12T04:09:49;3.77;;;2.70;;
1414;SDS011;702;49.466;11.086;2023-04-12T04:12:16;5.63;;;3.47;;
1414;SDS011;702;49.466;11.086;2023-04-12T04:14:43;4.40;;;3.10;;
1414;SDS011;702;49.466;11.086;2023-04-12T04:17:10;6.27;;;2.83;;
1414;SDS011;702;49.466;11.086;2023-04-12T04:19:39;5.80;;;2.77;;
1414;SDS011;702;49.466;11.086;2023-04-12T04:22:07;4.57;;;2.73;;
1414;SDS011;702;49.466;11.086;2023-04-12T04:24:36;5.90;;;3.17;;
1414;SDS011;702;49.466;11.086;2023-04-12T04:27:04;5.90;;;3.10;;
1414;SDS011;702;49.466;11.086;2023-04-12T04:29:31;4.63;;;3.10;;
1414;SDS011;702;49.466;11.086;2023-04-12T04:31:58;5.80;;;3.30;;
1414;SDS011;702;49.466;11.086;2023-04-12T04:34:25;6.77;;;2.90;;
1414;SDS011;702;49.466;11.086;2023-04-12T04:36:54;5.20;;;3.30;;
1414;SDS011;702;49.466;11.086;2023-04-12T04:39:22;3.60;;;2.70;;
1414;SDS011;702;49.466;11.086;2023-04-12T04:41:49;4.60;;;3.33;;
1414;SDS011;702;49.466;11.086;2023-04-12T04:44:19;4.20;;;3.50;;
1414;SDS011;702;49.466;11.086;2023-04-12T04:46:46;7.80;;;3.50;;
1414;SDS011;702;49.466;11.086;2023-04-12T04:49:13;6.10;;;3.40;;
1414;SDS011;702;49.466;11.086;2023-04-12T04:51:41;7.40;;;3.10;;
1414;SDS011;702;49.466;11.086;2023-04-12T04:54:10;4.27;;;3.10;;
1414;SDS011;702;49.466;11.086;2023-04-12T04:56:38;3.73;;;3.43;;
1414;SDS011;702;49.466;11.086;2023-04-12T04:59:05;4.67;;;3.30;;
1414;SDS011;702;49.466;11.086;2023-04-12T05:01:33;4.17;;;3.23;;
1414;SDS011;702;49.466;11.086;2023-04-12T05:04:00;4.33;;;3.30;;
1414;SDS011;702;49.466;11.086;2023-04-12T05:06:28;4.97;;;3.67;;
1414;SDS011;702;49.466;11.086;2023-04-12T05:08:55;6.50;;;3.27;;
1414;SDS011;702;49.466;11.086;2023-04-12T05:11:24;5.97;;;3.53;;
1414;SDS011;702;49.466;11.086;2023-04-12T05:13:51;7.50;;;4.03;;
1414;SDS011;702;49.466;11.086;2023-04-12T05:16:18;4.67;;;3.70;;
1414;SDS011;702;49.466;11.086;2023-04-12T05:18:45;8.53;;;3.60;;
1414;SDS011;702;49.466;11.086;2023-04-12T05:21:13;4.50;;;3.20;;
1414;SDS011;702;49.466;11.086;2023-04-12T05:23:41;7.53;;;3.50;;
1414;SDS011;702;49.466;11.086;2023-04-12T05:26:10;6.10;;;3.30;;
1414;SDS011;702;49.466;11.086;2023-04-12T05:28:38;5.57;;;3.37;;
1414;SDS011;702;49.466;11.086;2023-04-12T05:31:05;4.00;;;3.43;;
1414;SDS011;702;49.466;11.086;2023-04-12T05:33:33;5.20;;;3.07;;
1414;SDS011;702;49.466;11.086;2023-04-12T05:36:01;6.13;;;3.00;;
1414;SDS011;702;49.466;11.086;2023-04-12T05:38:29;9.30;;;4.70;;
1414;SDS011;702;49.466;11.086;2023-04-12T05:40:57;8.63;;;3.47;;
1414;SDS011;702;49.466;11.086;2023-04-12T05:43:24;6.30;;;4.20;;
1414;SDS011;702;49.466;11.086;2023-04-12T05:45:52;10.53;;;3.90;;
1414;SDS011;702;49.466;11.086;2023-04-12T05:48:20;6.17;;;3.13;;
1414;SDS011;702;49.466;11.086;2023-04-12T05:50:50;13.20;;;4.03;;
1414;SDS011;702;49.466;11.086;2023-04-12T05:53:18;6.73;;;3.43;;
1414;SDS011;702;49.466;11.086;2023-04-12T05:55:46;6.50;;;3.13;;
1414;SDS011;702;49.466;11.086;2023-04-12T05:58:14;4.50;;;3.70;;
1414;SDS011;702;49.466;11.086;2023-04-12T06:00:41;4.83;;;3.90;;
1414;SDS011;702;49.466;11.086;2023-04-12T06:03:10;11.97;;;5.00;;
1414;SDS011;702;49.466;11.086;2023-04-12T06:05:38;8.27;;;4.87;;
1414;SDS011;702;49.466;11.086;2023-04-12T06:08:05;11.63;;;4.60;;
1414;SDS011;702;49.466;11.086;2023-04-12T06:10:33;9.57;;;6.20;;
1414;SDS011;702;49.466;11.086;2023-04-12T06:13:00;7.07;;;3.57;;
1414;SDS011;702;49.466;11.086;2023-04-12T06:15:27;3.73;;;3.33;;
1414;SDS011;702;49.466;11.086;2023-04-12T06:17:56;7.50;;;2.87;;
1414;SDS011;702;49.466;11.086;2023-04-12T06:20:25;8.50;;;3.03;;
1414;SDS011;702;49.466;11.086;2023-04-12T06:22:52;5.73;;;3.27;;
1414;SDS011;702;49.466;11.086;2023-04-12T06:25:19;3.90;;;3.00;;
1414;SDS011;702;49.466;11.086;2023-04-12T06:27:47;5.63;;;3.03;;
1414;SDS011;702;49.466;11.086;2023-04-12T06:30:14;8.17;;;3.63;;
1414;SDS011;702;49.466;11.086;2023-04-12T06:32:41;6.33;;;4.30;;
1414;SDS011;702;49.466;11.086;2023-04-12T06:35:08;6.70;;;3.20;;
1414;SDS011;702;49.466;11.086;2023-04-12T06:37:37;7.00;;;3.00;;
1414;SDS011;702;49.466;11.086;2023-04-12T06:40:06;5.97;;;3.80;;
1414;SDS011;702;49.466;11.086;2023-04-12T06:42:36;5.77;;;3.57;;
1414;SDS011;702;49.466;11.086;2023-04-12T06:45:04;6.40;;;3.30;;
1414;SDS011;702;49.466;11.086;2023-04-12T06:47:32;6.87;;;3.33;;
1414;SDS011;702;49.466;11.086;2023-04-12T06:49:59;8.30;;;4.60;;
1414;SDS011;702;49.466;11.086;2023-04-12T06:52:27;6.67;;;3.10;;
1414;SDS011;702;49.466;11.086;2023-04-12T06:54:55;4.53;;;3.60;;
1414;SDS011;702;49.466;11.086;2023-04-12T06:57:23;3.73;;;3.40;;
1414;SDS011;702;49.466;11.086;2023-04-12T06:59:50;4.03;;;3.33;;
1414;SDS011;702;49.466;11.086;2023-04-12T07:02:17;5.17;;;3.50;;
1414;SDS011;702;49.466;11.086;2023-04-12T07:04:44;6.03;;;3.63;;
1414;SDS011;702;49.466;11.086;2023-04-12T07:07:11;6.00;;;3.30;;
1414;SDS011;702;49.466;11.086;2023-04-12T07:09:39;3.90;;;3.17;;
1414;SDS011;702;49.466;11.086;2023-04-12T07:12:08;4.20;;;3.53;;
1414;SDS011;702;49.466;11.086;2023-04-12T07:14:35;3.93;;;2.77;;
1414;SDS011;702;49.466;11.086;2023-04-12T07:17:02;4.87;;;3.43;;
1414;SDS011;702;49.466;11.086;2023-04-12T07:19:29;4.50;;;3.53;;
1414;SDS011;702;49.466;11.086;2023-04-12T07:21:57;4.83;;;3.40;;
1414;SDS011;702;49.466;11.086;2023-04-12T07:24:24;4.03;;;3.63;;
1414;SDS011;702;49.466;11.086;2023-04-12T07:26:52;4.97;;;3.47;;
1414;SDS011;702;49.466;11.086;2023-04-12T07:29:21;4.90;;;4.07;;
1414;SDS011;702;49.466;11.086;2023-04-12T07:31:48;6.40;;;3.97;;
1414;SDS011;702;49.466;11.086;2023-04-12T07:34:16;6.20;;;4.17;;
1414;SDS011;702;49.466;11.086;2023-04-12T07:36:43;5.30;;;4.23;;
1414;SDS011;702;49.466;11.086;2023-04-12T07:39:10;4.87;;;3.93;;
1414;SDS011;702;49.466;11.086;2023-04-12T07:41:38;4.33;;;3.90;;
1414;SDS011;702;49.466;11.086;2023-04-12T07:44:07;6.20;;;4.10;;
1414;SDS011;702;49.466;11.086;2023-04-12T07:46:36;5.00;;;3.63;;
1414;SDS011;702;49.466;11.086;2023-04-12T07:49:04;5.90;;;4.40;;
1414;SDS011;702;49.466;11.086;2023-04-12T07:51:32;7.00;;;4.53;;
1414;SDS011;702;49.466;11.086;2023-04-12T07:53:59;4.60;;;4.20;;
1414;SDS011;702;49.466;11.086;2023-04-12T07:56:26;4.37;;;3.67;;
1414;SDS011;702;49.466;11.086;2023-04-12T07:58:53;4.47;;;4.03;;
1414;SDS011;702;49.466;11.086;2023-04-12T08:01:21;4.43;;;4.03;;
1414;SDS011;702;49.466;11.086;2023-04-12T08:03:49;6.17;;;3.80;;
1414;SDS011;702;49.466;11.086;2023-04-12T08:06:16;4.30;;;3.90;;
1414;SDS011;702;49.466;11.086;2023-04-12T08:08:44;3.50;;;3.20;;
1414;SDS011;702;49.466;11.086;2023-04-12T08:11:11;7.90;;;4.10;;
1414;SDS011;702;49.466;11.086;2023-04-12T08:13:38;4.03;;;3.67;;
1414;SDS011;702;49.466;11.086;2023-04-12T08:16:06;4.00;;;3.60;;
1414;SDS011;702;49.466;11.086;2023-04-12T08:18:33;4.20;;;3.63;;
1414;SDS011;702;49.466;11.086;2023-04-12T08:21:02;3.37;;;3.07;;
1414;SDS011;702;49.466;11.086;2023-04-12T08:23:29;3.87;;;3.13;;
1414;SDS011;702;49.466;11.086;2023-04-12T08:25:57;4.53;;;3.40;;
1414;SDS011;702;49.466;11.086;2023-04-12T08:28:27;5.00;;;3.47;;
1414;SDS011;702;49.466;11.086;2023-04-12T08:30:55;3.80;;;3.00;;
1414;SDS011;702;49.466;11.086;2023-04-12T08:33:23;3.67;;;3.37;;
1414;SDS011;702;49.466;11.086;2023-04-12T08:35:51;3.40;;;3.10;;
1414;SDS011;702;49.466;11.086;2023-04-12T08:38:19;3.23;;;2.93;;
1414;SDS011;702;49.466;11.086;2023-04-12T08:40:46;3.70;;;2.90;;
1414;SDS011;702;49.466;11.086;2023-04-12T08:43:14;3.53;;;3.10;;
1414;SDS011;702;49.466;11.086;2023-04-12T08:45:44;4.00;;;3.23;;
1414;SDS011;702;49.466;11.086;2023-04-12T08:48:11;3.53;;;3.10;;
1414;SDS011;702;49.466;11.086;2023-04-12T08:50:41;2.40;;;2.30;;
1414;SDS011;702;49.466;11.086;2023-04-12T08:53:09;4.03;;;2.77;;
1414;SDS011;702;49.466;11.086;2023-04-12T08:55:38;3.27;;;2.87;;
1414;SDS011;702;49.466;11.086;2023-04-12T08:58:09;2.60;;;2.40;;
1414;SDS011;702;49.466;11.086;2023-04-12T09:00:38;4.23;;;2.90;;
1414;SDS011;702;49.466;11.086;2023-04-12T09:03:07;3.53;;;3.13;;
1414;SDS011;702;49.466;11.086;2023-04-12T09:05:35;3.33;;;2.63;;
1414;SDS011;702;49.466;11.086;2023-04-12T09:08:02;3.00;;;2.70;;
1414;SDS011;702;49.466;11.086;2023-04-12T09:10:31;3.90;;;2.90;;
1414;SDS011;702;49.466;11.086;2023-04-12T09:13:02;4.10;;;2.53;;
1414;SDS011;702;49.466;11.086;2023-04-12T09:15:30;2.77;;;2.57;;
1414;SDS011;702;49.466;11.086;2023-04-12T09:18:01;5.70;;;2.90;;
1414;SDS011;702;49.466;11.086;2023-04-12T09:20:31;2.50;;;2.30;;
1414;SDS011;702;49.466;11.086;2023-04-12T09:22:59;2.67;;;2.47;;
1414;SDS011;702;49.466;11.086;2023-04-12T09:25:37;3.13;;;2.83;;
1414;SDS011;702;49.466;11.086;2023-04-12T09:28:18;3.37;;;2.63;;
1414;SDS011;702;49.466;11.086;2023-04-12T09:30:47;3.73;;;2.60;;
1414;SDS011;702;49.466;11.086;2023-04-12T09:33:17;2.80;;;2.60;;
1414;SDS011;702;49.466;11.086;2023-04-12T09:35:46;3.90;;;2.67;;
1414;SDS011;702;49.466;11.086;2023-04-12T09:38:14;3.33;;;2.83;;
1414;SDS011;702;49.466;11.086;2023-04-12T09:40:41;4.10;;;3.07;;
1414;SDS011;702;49.466;11.086;2023-04-12T09:43:09;5.93;;;2.43;;
1414;SDS011;702;49.466;11.086;2023-04-12T09:45:38;3.40;;;3.10;;
1414;SDS011;702;49.466;11.086;2023-04-12T09:48:05;2.87;;;2.63;;
1414;SDS011;702;49.466;11.086;2023-04-12T09:50:33;2.90;;;2.60;;
1414;SDS011;702;49.466;11.086;2023-04-12T09:53:02;2.93;;;2.57;;
1414;SDS011;702;49.466;11.086;2023-04-12T09:55:41;3.80;;;2.60;;
1414;SDS011;702;49.466;11.086;2023-04-12T09:58:09;3.17;;;2.73;;
1414;SDS011;702;49.466;11.086;2023-04-12T10:00:39;3.30;;;2.93;;
1414;SDS011;702;49.466;11.086;2023-04-12T10:03:08;3.03;;;2.73;;
1414;SDS011;702;49.466;11.086;2023-04-12T10:05:35;5.30;;;3.10;;
1414;SDS011;702;49.466;11.086;2023-04-12T10:08:04;3.80;;;3.50;;
1414;SDS011;702;49.466;11.086;2023-04-12T10:10:32;4.43;;;4.03;;
1414;SDS011;702;49.466;11.086;2023-04-12T10:12:59;3.80;;;3.50;;
1414;SDS011;702;49.466;11.086;2023-04-12T10:15:26;6.00;;;3.40;;
1414;SDS011;702;49.466;11.086;2023-04-12T10:17:57;4.93;;;3.73;;
1414;SDS011;702;49.466;11.086;2023-04-12T10:20:24;4.40;;;4.00;;
1414;SDS011;702;49.466;11.086;2023-04-12T10:22:52;4.00;;;3.70;;
1414;SDS011;702;49.466;11.086;2023-04-12T10:25:20;4.23;;;3.83;;
1414;SDS011;702;49.466;11.086;2023-04-12T10:27:49;3.30;;;3.00;;
1414;SDS011;702;49.466;11.086;2023-04-12T10:30:17;3.47;;;3.17;;
1414;SDS011;702;49.466;11.086;2023-04-12T10:32:50;3.30;;;2.83;;
1414;SDS011;702;49.466;11.086;2023-04-12T10:35:51;4.03;;;3.10;;
1414;SDS011;702;49.466;11.086;2023-04-12T10:38:24;3.07;;;2.77;;
1414;SDS011;702;49.466;11.086;2023-04-12T10:41:07;3.70;;;2.90;;
1414;SDS011;702;49.466;11.086;2023-04-12T10:43:45;3.03;;;2.60;;
1414;SDS011;702;49.466;11.086;2023-04-12T10:49:16;3.63;;;2.30;;
1414;SDS011;702;49.466;11.086;2023-04-12T10:54:39;3.50;;;2.30;;
1414;SDS011;702;49.466;11.086;2023-04-12T10:57:07;2.23;;;2.03;;
1414;SDS011;702;49.466;11.086;2023-04-12T11:00:09;2.70;;;2.03;;
1414;SDS011;702;49.466;11.086;2023-04-12T11:08:26;2.27;;;2.07;;
1414;SDS011;702;49.466;11.086;2023-04-12T11:10:58;2.60;;;2.33;;
1414;SDS011;702;49.466;11.086;2023-04-12T11:13:28;3.00;;;2.60;;
1414;SDS011;702;49.466;11.086;2023-04-12T11:16:00;2.40;;;2.20;;
1414;SDS011;702;49.466;11.086;2023-04-12T11:18:28;2.50;;;2.30;;
1414;SDS011;702;49.466;11.086;2023-04-12T11:20:57;2.60;;;2.40;;
1414;SDS011;702;49.466;11.086;2023-04-12T11:23:24;2.87;;;2.60;;
1414;SDS011;702;49.466;11.086;2023-04-12T11:25:52;2.87;;;2.50;;
1414;SDS011;702;49.466;11.086;2023-04-12T11:28:19;3.00;;;2.60;;
1414;SDS011;702;49.466;11.086;2023-04-12T11:30:48;3.77;;;2.37;;
1414;SDS011;702;49.466;11.086;2023-04-12T11:36:06;2.30;;;2.10;;
1414;SDS011;702;49.466;11.086;2023-04-12T11:38:36;3.90;;;2.70;;
1414;SDS011;702;49.466;11.086;2023-04-12T11:41:04;2.50;;;2.30;;
1414;SDS011;702;49.466;11.086;2023-04-12T11:43:34;3.73;;;2.53;;
1414;SDS011;702;49.466;11.086;2023-04-12T11:46:02;3.50;;;3.07;;
1414;SDS011;702;49.466;11.086;2023-04-12T11:48:30;3.33;;;2.53;;
1414;SDS011;702;49.466;11.086;2023-04-12T11:50:59;3.03;;;2.73;;
1414;SDS011;702;49.466;11.086;2023-04-12T11:53:28;4.03;;;2.80;;
1414;SDS011;702;49.466;11.086;2023-04-12T11:55:55;3.90;;;3.07;;
1414;SDS011;702;49.466;11.086;2023-04-12T11:58:25;2.53;;;2.33;;
1414;SDS011;702;49.466;11.086;2023-04-12T12:00:53;3.23;;;2.90;;
1414;SDS011;702;49.466;11.086;2023-04-12T12:03:22;6.37;;;2.70;;
1414;SDS011;702;49.466;11.086;2023-04-12T12:05:50;4.23;;;2.73;;
1414;SDS011;702;49.466;11.086;2023-04-12T12:08:18;3.80;;;2.70;;
1414;SDS011;702;49.466;11.086;2023-04-12T12:10:47;4.20;;;2.97;;
1414;SDS011;702;49.466;11.086;2023-04-12T12:13:14;2.97;;;2.77;;
1414;SDS011;702;49.466;11.086;2023-04-12T12:15:42;4.20;;;3.17;;
1414;SDS011;702;49.466;11.086;2023-04-12T12:18:10;3.20;;;2.87;;
1414;SDS011;702;49.466;11.086;2023-04-12T12:20:38;4.27;;;3.40;;
1414;SDS011;702;49.466;11.086;2023-04-12T12:23:07;4.43;;;3.30;;
1414;SDS011;702;49.466;11.086;2023-04-12T12:25:34;3.13;;;2.80;;
1414;SDS011;702;49.466;11.086;2023-04-12T12:28:04;2.73;;;2.53;;
1414;SDS011;702;49.466;11.086;2023-04-12T12:30:37;3.40;;;2.60;;
1414;SDS011;702;49.466;11.086;2023-04-12T12:33:05;4.00;;;2.77;;
1414;SDS011;702;49.466;11.086;2023-04-12T12:35:33;3.37;;;3.07;;
1414;SDS011;702;49.466;11.086;2023-04-12T12:38:05;3.03;;;2.73;;
1414;SDS011;702;49.466;11.086;2023-04-12T12:40:33;3.77;;;3.37;;
1414;SDS011;702;49.466;11.086;2023-04-12T12:43:00;2.97;;;2.77;;
1414;SDS011;702;49.466;11.086;2023-04-12T12:45:30;3.47;;;3.17;;
1414;SDS011;702;49.466;11.086;2023-04-12T12:48:00;3.60;;;3.00;;
1414;SDS011;702;49.466;11.086;2023-04-12T12:50:29;3.73;;;3.43;;
1414;SDS011;702;49.466;11.086;2023-04-12T12:52:59;4.47;;;3.40;;
1414;SDS011;702;49.466;11.086;2023-04-12T12:55:30;5.10;;;3.47;;
1414;SDS011;702;49.466;11.086;2023-04-12T12:57:57;3.10;;;2.73;;
1414;SDS011;702;49.466;11.086;2023-04-12T13:00:26;5.80;;;3.63;;
1414;SDS011;702;49.466;11.086;2023-04-12T13:02:55;3.30;;;3.00;;
1414;SDS011;702;49.466;11.086;2023-04-12T13:05:24;4.50;;;3.07;;
1414;SDS011;702;49.466;11.086;2023-04-12T13:07:51;3.30;;;3.00;;
1414;SDS011;702;49.466;11.086;2023-04-12T13:10:18;4.10;;;3.60;;
1414;SDS011;702;49.466;11.086;2023-04-12T13:12:46;4.10;;;3.27;;
1414;SDS011;702;49.466;11.086;2023-04-12T13:15:13;4.27;;;3.50;;
1414;SDS011;702;49.466;11.086;2023-04-12T13:17:42;3.83;;;3.53;;
1414;SDS011;702;49.466;11.086;2023-04-12T13:20:09;4.90;;;3.53;;
1414;SDS011;702;49.466;11.086;2023-04-12T13:22:36;4.23;;;3.73;;
1414;SDS011;702;49.466;11.086;2023-04-12T13:25:04;6.93;;;4.73;;
1414;SDS011;702;49.466;11.086;2023-04-12T13:27:32;4.50;;;4.10;;
1414;SDS011;702;49.466;11.086;2023-04-12T13:29:59;4.37;;;3.93;;
1414;SDS011;702;49.466;11.086;2023-04-12T13:32:27;3.93;;;3.63;;
1414;SDS011;702;49.466;11.086;2023-04-12T13:34:55;5.70;;;3.90;;
1414;SDS011;702;49.466;11.086;2023-04-12T13:37:22;4.40;;;3.90;;
1414;SDS011;702;49.466;11.086;2023-04-12T13:39:50;3.63;;;3.33;;
1414;SDS011;702;49.466;11.086;2023-04-12T13:42:17;6.70;;;3.97;;
1414;SDS011;702;49.466;11.086;2023-04-12T13:44:44;8.73;;;4.47;;
1414;SDS011;702;49.466;11.086;2023-04-12T13:47:13;4.30;;;3.90;;
1414;SDS011;702;49.466;11.086;2023-04-12T13:49:40;5.27;;;4.27;;
1414;SDS011;702;49.466;11.086;2023-04-12T13:52:09;5.70;;;4.00;;
1414;SDS011;702;49.466;11.086;2023-04-12T13:54:36;3.70;;;3.40;;
1414;SDS011;702;49.466;11.086;2023-04-12T13:57:03;3.67;;;3.40;;
1414;SDS011;702;49.466;11.086;2023-04-12T13:59:31;5.07;;;4.67;;
1414;SDS011;702;49.466;11.086;2023-04-12T14:01:59;4.90;;;3.97;;
1414;SDS011;702;49.466;11.086;2023-04-12T14:04:26;3.43;;;3.13;;
1414;SDS011;702;49.466;11.086;2023-04-12T14:06:54;4.33;;;3.43;;
1414;SDS011;702;49.466;11.086;2023-04-12T14:09:23;4.20;;;3.80;;
1414;SDS011;702;49.466;11.086;2023-04-12T14:11:52;3.40;;;3.10;;
1414;SDS011;702;49.466;11.086;2023-04-12T14:14:21;4.20;;;3.80;;
1414;SDS011;702;49.466;11.086;2023-04-12T14:16:50;4.63;;;3.87;;
1414;SDS011;702;49.466;11.086;2023-04-12T14:19:21;3.90;;;3.50;;
1414;SDS011;702;49.466;11.086;2023-04-12T14:21:48;5.00;;;3.90;;
1414;SDS011;702;49.466;11.086;2023-04-12T14:24:16;3.77;;;3.30;;
1414;SDS011;702;49.466;11.086;2023-04-12T14:26:46;4.80;;;3.90;;
1414;SDS011;702;49.466;11.086;2023-04-12T14:29:14;4.63;;;4.33;;
1414;SDS011;702;49.466;11.086;2023-04-12T14:31:42;4.70;;;4.27;;
1414;SDS011;702;49.466;11.086;2023-04-12T14:34:09;5.30;;;4.80;;
1414;SDS011;702;49.466;11.086;2023-04-12T14:36:37;5.53;;;4.70;;
1414;SDS011;702;49.466;11.086;2023-04-12T14:39:05;4.87;;;4.37;;
1414;SDS011;702;49.466;11.086;2023-04-12T14:41:33;4.60;;;4.20;;
1414;SDS011;702;49.466;11.086;2023-04-12T14:44:02;5.43;;;4.93;;
1414;SDS011;702;49.466;11.086;2023-04-12T14:46:30;5.03;;;4.60;;
1414;SDS011;702;49.466;11.086;2023-04-12T14:48:57;5.37;;;4.60;;
1414;SDS011;702;49.466;11.086;2023-04-12T14:51:26;5.93;;;4.53;;
1414;SDS011;702;49.466;11.086;2023-04-12T14:53:53;5.80;;;3.87;;
1414;SDS011;702;49.466;11.086;2023-04-12T14:56:21;4.93;;;4.33;;
1414;SDS011;702;49.466;11.086;2023-04-12T14:58:50;5.03;;;4.53;;
1414;SDS011;702;49.466;11.086;2023-04-12T15:01:21;4.17;;;3.77;;
1414;SDS011;702;49.466;11.086;2023-04-12T15:03:49;4.20;;;3.80;;
1414;SDS011;702;49.466;11.086;2023-04-12T15:06:17;4.13;;;3.00;;
1414;SDS011;702;49.466;11.086;2023-04-12T15:08:45;3.40;;;3.10;;
1414;SDS011;702;49.466;11.086;2023-04-12T15:11:13;3.23;;;2.93;;
1414;SDS011;702;49.466;11.086;2023-04-12T15:13:43;3.17;;;2.97;;
1414;SDS011;702;49.466;11.086;2023-04-12T15:16:10;4.90;;;4.30;;
1414;SDS011;702;49.466;11.086;2023-04-12T15:18:39;6.23;;;3.90;;
1414;SDS011;702;49.466;11.086;2023-04-12T15:21:07;4.27;;;3.97;;
1414;SDS011;702;49.466;11.086;2023-04-12T15:23:35;4.30;;;3.70;;
1414;SDS011;702;49.466;11.086;2023-04-12T15:26:03;6.33;;;3.87;;
1414;SDS011;702;49.466;11.086;2023-04-12T15:28:33;3.70;;;3.40;;
1414;SDS011;702;49.466;11.086;2023-04-12T15:31:00;5.77;;;3.47;;
1414;SDS011;702;49.466;11.086;2023-04-12T15:33:28;3.63;;;3.07;;
1414;SDS011;702;49.466;11.086;2023-04-12T15:36:00;4.40;;;3.30;;
1414;SDS011;702;49.466;11.086;2023-04-12T15:38:28;3.57;;;2.90;;
1414;SDS011;702;49.466;11.086;2023-04-12T15:40:56;3.10;;;2.80;;